Time;durP1;ratioP1;P1;durP2;ratioP2;P2;SDS_P1;SDS_P2;PMS_P1;PMS_P2;Temp;Humidity;BMP_temperature;BMP_pressure;BME280_temperature;BME280_humidity;BME280_pressure;Samples;Min_cycle;Max_cycle;Signal;HPM_P1;HPM_P2
2023/08/05 00:00:39;;;;;;;9.2;4.4;;;;;;;19.53;81.01;;;;;
2023/08/05 00:10:39;;;;;;;8.2;4.2;;;;;;;19.4;81.2;;;;;
2023/08/05 00:21:39;;;;;;;8.2;4.2;;;;;;;19.35;81.07;;;;;
2023/08/05 00:31:39;;;;;;;8.2;4.2;;;;;;;19.41;80.78;;;;;
2023/08/05 00:42:39;;;;;;;7.2;4.2;;;;;;;19.41;81.13;;;;;
2023/08/05 00:52:39;;;;;;;7.2;4.2;;;;;;;19.48;80.86;;;;;
2023/08/05 01:03:39;;;;;;;7.2;4.2;;;;;;;19.42;81.29;;;;;
2023/08/05 01:13:40;;;;;;;9.6;4.1;;;;;;;19.51;80.92;;;;;
2023/08/05 01:24:39;;;;;;;9.6;4.1;;;;;;;19.45;81.49;;;;;
2023/08/05 01:35:39;;;;;;;9.6;4.1;;;;;;;19.54;81.47;;;;;
2023/08/05 01:45:39;;;;;;;8.8;4.7;;;;;;;19.67;80.66;;;;;
2023/08/05 01:55:39;;;;;;;8.8;4.7;;;;;;;19.69;80.82;;;;;
2023/08/05 02:06:39;;;;;;;8.8;4.7;;;;;;;19.69;81.81;;;;;
2023/08/05 02:16:39;;;;;;;9.9;4.3;;;;;;;19.66;82.13;;;;;
2023/08/05 02:27:39;;;;;;;9.9;4.3;;;;;;;19.76;81.38;;;;;
2023/08/05 02:38:39;;;;;;;9.9;4.3;;;;;;;19.61;82.86;;;;;
2023/08/05 02:48:39;;;;;;;7.8;4.9;;;;;;;19.68;81.89;;;;;
2023/08/05 02:58:39;;;;;;;7.8;4.9;;;;;;;19.62;81.69;;;;;
2023/08/05 03:08:39;;;;;;;7.8;4.9;;;;;;;19.68;81.33;;;;;
2023/08/05 03:19:39;;;;;;;7.1;4.3;;;;;;;18.88;86.46;;;;;
2023/08/05 03:30:39;;;;;;;7.1;4.3;;;;;;;18.45;88.21;;;;;
2023/08/05 03:40:43;;;;;;;9.5;5.4;;;;;;;18.44;86.88;;;;;
2023/08/05 03:51:43;;;;;;;9.5;5.4;;;;;;;18.08;89.02;;;;;
2023/08/05 04:01:43;;;;;;;9.5;5.4;;;;;;;18.14;88.74;;;;;
2023/08/05 04:11:43;;;;;;;8.3;4.5;;;;;;;17.85;90.59;;;;;
2023/08/05 04:22:46;;;;;;;8.3;4.5;;;;;;;17.81;90.56;;;;;
2023/08/05 04:33:43;;;;;;;8.3;4.5;;;;;;;17.75;90.59;;;;;
2023/08/05 04:43:43;;;;;;;8.6;4.7;;;;;;;17.79;90.72;;;;;
2023/08/05 04:53:43;;;;;;;8.6;4.7;;;;;;;17.74;90.83;;;;;
2023/08/05 05:04:43;;;;;;;8.6;4.7;;;;;;;17.9;90.5;;;;;
2023/08/05 05:14:43;;;;;;;8.6;5;;;;;;;17.87;90.52;;;;;
2023/08/05 05:25:43;;;;;;;8.6;5;;;;;;;17.76;91.13;;;;;
2023/08/05 05:35:43;;;;;;;8.6;5;;;;;;;18.03;90.62;;;;;
2023/08/05 05:46:43;;;;;;;9.3;5.4;;;;;;;18.2;89.77;;;;;
2023/08/05 05:56:43;;;;;;;9.3;5.4;;;;;;;17.88;90.83;;;;;
2023/08/05 06:07:43;;;;;;;9.3;5.4;;;;;;;17.68;92.49;;;;;
2023/08/05 06:18:43;;;;;;;8.5;5.6;;;;;;;17.79;92.43;;;;;
2023/08/05 06:29:43;;;;;;;8.5;5.6;;;;;;;17.93;92.01;;;;;
2023/08/05 06:40:45;;;;;;;9.4;5.9;;;;;;;18.13;90.91;;;;;
2023/08/05 06:50:43;;;;;;;9.4;5.9;;;;;;;18.59;90.46;;;;;
2023/08/05 07:00:43;;;;;;;9.4;5.9;;;;;;;18.22;90.08;;;;;
2023/08/05 07:11:45;;;;;;;8.3;4.8;;;;;;;18.01;91.33;;;;;
2023/08/05 07:21:43;;;;;;;8.3;4.8;;;;;;;18.45;90.84;;;;;
2023/08/05 07:32:43;;;;;;;8.3;4.8;;;;;;;18.74;88.8;;;;;
2023/08/05 07:42:44;;;;;;;6.7;4;;;;;;;19.14;87.57;;;;;
2023/08/05 07:52:43;;;;;;;6.7;4;;;;;;;19.19;87.27;;;;;
2023/08/05 08:03:43;;;;;;;6.7;4;;;;;;;18.92;87.67;;;;;
2023/08/05 08:14:43;;;;;;;9.1;5.1;;;;;;;18.78;88.18;;;;;
2023/08/05 08:24:43;;;;;;;9.1;5.1;;;;;;;19.11;87.21;;;;;
2023/08/05 08:35:43;;;;;;;9.1;5.1;;;;;;;19.29;86.79;;;;;
2023/08/05 08:45:43;;;;;;;7.5;4.1;;;;;;;19.17;86.83;;;;;
2023/08/05 08:56:43;;;;;;;7.5;4.1;;;;;;;19.62;85.79;;;;;
2023/08/05 09:06:43;;;;;;;7.5;4.1;;;;;;;19.57;85.45;;;;;
2023/08/05 09:17:44;;;;;;;8.8;4.3;;;;;;;19.48;86.08;;;;;
2023/08/05 09:27:43;;;;;;;8.8;4.3;;;;;;;19.69;85.03;;;;;
2023/08/05 09:37:44;;;;;;;8.8;4.3;;;;;;;19.45;86.5;;;;;
2023/08/05 09:47:43;;;;;;;6.7;4.1;;;;;;;19.97;84.73;;;;;
2023/08/05 09:58:43;;;;;;;6.7;4.1;;;;;;;20.79;81.77;;;;;
2023/08/05 10:08:43;;;;;;;6.7;4.1;;;;;;;21.77;78.65;;;;;
2023/08/05 10:18:43;;;;;;;6.8;4.1;;;;;;;22.34;77.01;;;;;
2023/08/05 10:29:43;;;;;;;6.8;4.1;;;;;;;22.97;74.78;;;;;
2023/08/05 10:39:43;;;;;;;6.1;3.3;;;;;;;23.65;75.2;;;;;
2023/08/05 10:49:43;;;;;;;6.1;3.3;;;;;;;23.73;72.42;;;;;
2023/08/05 11:00:44;;;;;;;6.1;3.3;;;;;;;24.17;71.91;;;;;
2023/08/05 11:10:43;;;;;;;4.1;2.3;;;;;;;25.14;68.54;;;;;
2023/08/05 11:21:43;;;;;;;4.1;2.3;;;;;;;24.75;67.68;;;;;
2023/08/05 11:31:43;;;;;;;4.1;2.3;;;;;;;25.26;67.6;;;;;
2023/08/05 11:41:43;;;;;;;4.1;2.1;;;;;;;25.17;67.3;;;;;
2023/08/05 11:52:43;;;;;;;4.1;2.1;;;;;;;24.36;69.85;;;;;
2023/08/05 12:03:43;;;;;;;4.1;2.1;;;;;;;24.28;69.89;;;;;
2023/08/05 12:13:43;;;;;;;5.4;3.4;;;;;;;24.51;69.88;;;;;
2023/08/05 12:24:43;;;;;;;5.4;3.4;;;;;;;24.51;70.06;;;;;
2023/08/05 12:34:43;;;;;;;5.4;3.4;;;;;;;23.93;72.28;;;;;
2023/08/05 12:44:43;;;;;;;5.9;3.5;;;;;;;23.88;73.1;;;;;
2023/08/05 12:55:43;;;;;;;5.9;3.5;;;;;;;23.18;76.03;;;;;
2023/08/05 13:06:43;;;;;;;5.9;3.5;;;;;;;23.12;76.84;;;;;
2023/08/05 13:16:43;;;;;;;6;2.3;;;;;;;23.18;76.82;;;;;
2023/08/05 13:26:43;;;;;;;6;2.3;;;;;;;22.89;77.24;;;;;
2023/08/05 13:37:43;;;;;;;6;2.3;;;;;;;22.7;78.94;;;;;
2023/08/05 13:47:43;;;;;;;4.3;2.5;;;;;;;22.66;78.84;;;;;
2023/08/05 13:57:43;;;;;;;4.3;2.5;;;;;;;22.55;78.95;;;;;
2023/08/05 14:07:43;;;;;;;4.3;2.5;;;;;;;22.33;79.91;;;;;
2023/08/05 14:18:43;;;;;;;6;3.7;;;;;;;22.6;78.49;;;;;
2023/08/05 14:28:43;;;;;;;6;3.7;;;;;;;22.52;79.51;;;;;
2023/08/05 14:39:43;;;;;;;6;3.7;;;;;;;22.59;78.83;;;;;
2023/08/05 14:50:43;;;;;;;7.4;3.4;;;;;;;22.49;79.22;;;;;
2023/08/05 15:01:43;;;;;;;7.4;3.4;;;;;;;22.58;78.77;;;;;
2023/08/05 15:11:43;;;;;;;5.8;3.2;;;;;;;22.68;78.1;;;;;
2023/08/05 15:21:43;;;;;;;5.8;3.2;;;;;;;22.68;78.31;;;;;
2023/08/05 15:32:43;;;;;;;5.8;3.2;;;;;;;22.58;78.42;;;;;
2023/08/05 15:42:43;;;;;;;4.7;2.5;;;;;;;22.33;79.02;;;;;
2023/08/05 15:52:43;;;;;;;4.7;2.5;;;;;;;22.17;79.55;;;;;
2023/08/05 16:03:43;;;;;;;4.7;2.5;;;;;;;22.15;79.56;;;;;
2023/08/05 16:14:43;;;;;;;6.1;3.5;;;;;;;22.09;80.02;;;;;
2023/08/05 16:24:43;;;;;;;6.1;3.5;;;;;;;22.12;80.32;;;;;
2023/08/05 16:35:43;;;;;;;6.1;3.5;;;;;;;22.12;80.87;;;;;
2023/08/05 16:45:43;;;;;;;6.8;3.8;;;;;;;21.95;81.37;;;;;
2023/08/05 16:55:43;;;;;;;6.8;3.8;;;;;;;22.2;80.47;;;;;
2023/08/05 17:06:43;;;;;;;6.8;3.8;;;;;;;22.28;80.71;;;;;
2023/08/05 17:16:43;;;;;;;7.2;3.3;;;;;;;22.19;81.23;;;;;
2023/08/05 17:26:43;;;;;;;7.2;3.3;;;;;;;22.14;80.97;;;;;
2023/08/05 17:37:43;;;;;;;7.2;3.3;;;;;;;21.94;81.51;;;;;
2023/08/05 17:48:43;;;;;;;8.2;5.3;;;;;;;21.88;81.95;;;;;
2023/08/05 17:59:44;;;;;;;8.2;5.3;;;;;;;21.76;82.85;;;;;
2023/08/05 18:10:43;;;;;;;6.7;4.8;;;;;;;21.73;82.68;;;;;
2023/08/05 18:21:43;;;;;;;6.7;4.8;;;;;;;21.41;83.89;;;;;
2023/08/05 18:31:43;;;;;;;6.7;4.8;;;;;;;21.26;84.78;;;;;
2023/08/05 18:42:43;;;;;;;9.9;5.5;;;;;;;21.03;85.58;;;;;
2023/08/05 18:53:43;;;;;;;9.9;5.5;;;;;;;20.81;86.15;;;;;
2023/08/05 19:03:43;;;;;;;9.9;5.5;;;;;;;20.91;86.28;;;;;
2023/08/05 19:14:44;;;;;;;11.2;8.2;;;;;;;20.71;87.35;;;;;
2023/08/05 19:25:43;;;;;;;11.2;8.2;;;;;;;20.22;89.12;;;;;
2023/08/05 19:35:43;;;;;;;11.2;8.2;;;;;;;19.93;90.75;;;;;
2023/08/05 19:46:43;;;;;;;13.1;9;;;;;;;20.02;90.75;;;;;
2023/08/05 19:57:43;;;;;;;13.1;9;;;;;;;20.01;91.31;;;;;
2023/08/05 20:07:43;;;;;;;13.1;9;;;;;;;20.13;91.19;;;;;
2023/08/05 20:17:44;;;;;;;12.7;9.7;;;;;;;20.42;90.4;;;;;
2023/08/05 20:28:43;;;;;;;12.7;9.7;;;;;;;20.52;89.68;;;;;
2023/08/05 20:38:44;;;;;;;12.7;9.7;;;;;;;20.34;90.44;;;;;
2023/08/05 20:48:48;;;;;;;12.8;9;;;;;;;20.41;90.43;;;;;
2023/08/05 20:58:44;;;;;;;12.8;9;;;;;;;20.4;90.62;;;;;
2023/08/05 21:08:43;;;;;;;12.8;9;;;;;;;20.43;90.1;;;;;
2023/08/05 21:18:44;;;;;;;13.7;9.4;;;;;;;19.73;92.94;;;;;
2023/08/05 21:28:44;;;;;;;13.7;9.4;;;;;;;19.74;93.19;;;;;
2023/08/05 21:38:44;;;;;;;13.7;9.4;;;;;;;19.75;92.85;;;;;
2023/08/05 21:48:44;;;;;;;13.8;10.4;;;;;;;19.76;92.7;;;;;
2023/08/05 21:58:44;;;;;;;13.8;10.4;;;;;;;19.75;93.36;;;;;
2023/08/05 22:09:44;;;;;;;13.8;10.4;;;;;;;20.08;92.46;;;;;
2023/08/05 22:20:44;;;;;;;12.7;9.5;;;;;;;20.18;92.12;;;;;
2023/08/05 22:30:44;;;;;;;12.7;9.5;;;;;;;20.18;91.76;;;;;
2023/08/05 22:41:44;;;;;;;10.7;7.4;;;;;;;19.96;92.89;;;;;
2023/08/05 22:52:44;;;;;;;10.7;7.4;;;;;;;20.12;92.61;;;;;
2023/08/05 23:02:44;;;;;;;10.7;7.4;;;;;;;20.06;92.57;;;;;
2023/08/05 23:13:44;;;;;;;10.8;6.8;;;;;;;20.06;92.47;;;;;
2023/08/05 23:23:44;;;;;;;10.8;6.8;;;;;;;20.05;92.91;;;;;
2023/08/05 23:34:44;;;;;;;10.8;6.8;;;;;;;20.04;92.47;;;;;
2023/08/05 23:44:44;;;;;;;8;5.1;;;;;;;20.25;91.95;;;;;
2023/08/05 23:55:44;;;;;;;8;5.1;;;;;;;20.26;91.1;;;;;
